createdAt,value
2022-08-07T00:02:40.704Z,13.60
2022-08-07T00:04:29.673Z,13.50
2022-08-07T00:07:05.278Z,13.50
2022-08-07T00:09:50.167Z,13.40
2022-08-07T00:12:25.796Z,13.40
2022-08-07T00:14:58.981Z,13.40
2022-08-07T00:17:25.780Z,13.40
2022-08-07T00:20:03.360Z,13.30
2022-08-07T00:22:37.011Z,13.30
2022-08-07T00:25:16.721Z,13.20
2022-08-07T00:27:52.255Z,13.20
2022-08-07T00:30:28.543Z,13.20
2022-08-07T00:33:14.931Z,13.20
2022-08-07T00:35:49.571Z,13.10
2022-08-07T00:38:31.821Z,13.10
2022-08-07T00:41:00.952Z,13.00
2022-08-07T00:44:00.314Z,13.00
2022-08-07T00:46:27.968Z,13.00
2022-08-07T00:49:02.088Z,13.00
2022-08-07T00:51:57.740Z,12.90
2022-08-07T00:54:31.978Z,12.90
2022-08-07T00:57:06.010Z,12.80
2022-08-07T00:59:39.988Z,12.80
2022-08-07T01:02:08.981Z,12.80
2022-08-07T01:04:48.022Z,12.70
2022-08-07T01:07:22.054Z,12.70
2022-08-07T01:10:06.016Z,12.70
2022-08-07T01:12:54.168Z,12.70
2022-08-07T01:16:00.841Z,12.70
2022-08-07T01:18:17.889Z,12.70
2022-08-07T01:20:59.461Z,12.60
2022-08-07T01:23:38.756Z,12.60
2022-08-07T01:26:07.877Z,12.50
2022-08-07T01:28:48.482Z,12.50
2022-08-07T01:31:19.706Z,12.40
2022-08-07T01:34:07.020Z,12.50
2022-08-07T01:36:40.718Z,12.40
2022-08-07T01:39:14.092Z,12.40
2022-08-07T01:42:07.081Z,12.40
2022-08-07T01:44:36.970Z,12.30
2022-08-07T01:48:16.934Z,12.30
2022-08-07T01:49:57.961Z,12.30
2022-08-07T01:52:49.401Z,12.20
2022-08-07T01:55:33.786Z,12.20
2022-08-07T01:58:27.755Z,12.20
2022-08-07T02:01:09.937Z,12.10
2022-08-07T02:03:59.679Z,12.10
2022-08-07T02:06:35.989Z,12.00
2022-08-07T02:09:05.564Z,12.00
2022-08-07T02:12:04.869Z,12.00
2022-08-07T02:14:41.309Z,12.00
2022-08-07T02:17:11.145Z,11.90
2022-08-07T02:20:06.975Z,11.90
2022-08-07T02:22:40.970Z,11.90
2022-08-07T02:25:17.345Z,11.80
2022-08-07T02:27:51.922Z,11.80
2022-08-07T02:30:26.011Z,11.80
2022-08-07T02:33:01.017Z,11.80
2022-08-07T02:36:30.336Z,11.70
2022-08-07T02:38:50.915Z,11.70
2022-08-07T02:41:25.009Z,11.60
2022-08-07T02:44:08.957Z,11.60
2022-08-07T02:46:37.332Z,11.60
2022-08-07T02:49:29.217Z,11.60
2022-08-07T02:52:13.556Z,11.50
2022-08-07T02:54:48.058Z,11.50
2022-08-07T02:57:28.699Z,11.50
2022-08-07T03:00:01.126Z,11.50
2022-08-07T03:02:41.922Z,11.40
2022-08-07T03:05:35.783Z,11.40
2022-08-07T03:08:10.506Z,11.40
2022-08-07T03:10:46.461Z,11.40
2022-08-07T03:13:22.037Z,11.30
2022-08-07T03:15:56.472Z,11.30
2022-08-07T03:18:34.607Z,11.30
2022-08-07T03:21:04.889Z,11.30
2022-08-07T03:24:20.591Z,11.20
2022-08-07T03:26:34.158Z,11.20
2022-08-07T03:29:11.198Z,11.20
2022-08-07T03:31:46.144Z,11.20
2022-08-07T03:34:30.018Z,11.20
2022-08-07T03:37:12.491Z,11.20
2022-08-07T03:39:59.373Z,11.10
2022-08-07T03:42:34.007Z,11.10
2022-08-07T03:45:07.976Z,11.10
2022-08-07T03:47:45.312Z,11.00
2022-08-07T03:50:28.391Z,11.00
2022-08-07T03:53:00.020Z,11.00
2022-08-07T03:55:57.947Z,11.00
2022-08-07T03:58:34.344Z,11.00
2022-08-07T04:01:17.049Z,11.00
2022-08-07T04:03:53.421Z,11.00
2022-08-07T04:06:37.907Z,11.00
2022-08-07T04:09:05.767Z,11.00
2022-08-07T04:12:24.614Z,11.00
2022-08-07T04:14:38.955Z,11.00
2022-08-07T04:18:31.074Z,11.00
2022-08-07T04:20:08.970Z,11.00
2022-08-07T04:22:53.175Z,11.00
2022-08-07T04:25:22.656Z,11.00
2022-08-07T04:28:00.323Z,11.00
2022-08-07T04:30:39.197Z,11.00
2022-08-07T04:33:18.014Z,11.00
2022-08-07T04:35:54.389Z,11.00
2022-08-07T04:38:28.978Z,11.00
2022-08-07T04:40:56.778Z,11.00
2022-08-07T04:44:12.497Z,11.10
2022-08-07T04:46:59.697Z,11.10
2022-08-07T04:49:57.398Z,11.10
2022-08-07T04:52:51.055Z,11.20
2022-08-07T04:58:11.834Z,11.20
2022-08-07T05:00:07.804Z,11.20
2022-08-07T05:02:24.001Z,11.30
2022-08-07T05:05:53.041Z,11.30
2022-08-07T05:08:59.518Z,11.40
2022-08-07T05:11:58.705Z,11.40
2022-08-07T05:14:52.256Z,11.40
2022-08-07T05:17:52.529Z,11.50
2022-08-07T05:20:11.633Z,11.50
2022-08-07T05:22:48.985Z,11.60
2022-08-07T05:25:26.307Z,11.70
2022-08-07T05:28:20.639Z,11.80
2022-08-07T05:30:52.113Z,11.90
2022-08-07T05:33:35.655Z,12.00
2022-08-07T05:36:22.591Z,12.10
2022-08-07T05:39:00.770Z,12.20
2022-08-07T05:42:01.823Z,12.30
2022-08-07T05:44:29.643Z,12.30
2022-08-07T05:47:18.238Z,12.40
2022-08-07T05:49:55.997Z,12.50
2022-08-07T05:52:29.794Z,12.70
2022-08-07T05:55:10.459Z,12.80
2022-08-07T05:57:47.019Z,12.90
2022-08-07T06:00:16.593Z,13.10
2022-08-07T06:02:56.022Z,13.20
2022-08-07T06:05:28.414Z,13.30
2022-08-07T06:08:30.258Z,13.50
2022-08-07T06:10:55.890Z,13.60
2022-08-07T06:13:31.630Z,13.70
2022-08-07T06:16:17.990Z,13.90
2022-08-07T06:18:59.985Z,14.10
2022-08-07T06:22:14.679Z,14.40
2022-08-07T06:24:52.361Z,14.50
2022-08-07T06:27:08.314Z,14.60
2022-08-07T06:29:43.030Z,14.80
2022-08-07T06:32:09.734Z,14.90
2022-08-07T06:34:54.038Z,15.10
2022-08-07T06:37:44.427Z,15.20
2022-08-07T06:40:13.450Z,15.30
2022-08-07T06:42:55.051Z,15.40
2022-08-07T06:45:23.865Z,15.50
2022-08-07T06:47:59.219Z,15.70
2022-08-07T06:50:36.069Z,15.80
2022-08-07T06:54:11.499Z,15.90
2022-08-07T06:56:07.443Z,16.00
2022-08-07T07:00:13.187Z,16.20
2022-08-07T07:01:41.968Z,16.40
2022-08-07T07:04:32.327Z,16.50
2022-08-07T07:07:18.877Z,16.70
2022-08-07T07:09:54.658Z,16.80
2022-08-07T07:12:53.298Z,17.00
2022-08-07T07:15:26.488Z,17.10
2022-08-07T07:18:33.081Z,17.30
2022-08-07T07:21:27.195Z,17.40
2022-08-07T07:24:17.375Z,17.50
2022-08-07T07:26:51.692Z,17.60
2022-08-07T07:29:56.517Z,17.70
2022-08-07T07:32:18.691Z,17.80
2022-08-07T07:34:55.034Z,17.90
2022-08-07T07:37:49.683Z,18.00
2022-08-07T07:40:26.152Z,18.00
2022-08-07T07:42:55.602Z,18.10
2022-08-07T07:46:37.691Z,18.20
2022-08-07T07:48:35.258Z,18.30
2022-08-07T07:51:08.032Z,18.40
2022-08-07T07:53:52.077Z,18.40
2022-08-07T07:56:31.013Z,18.60
2022-08-07T07:59:07.008Z,18.60
2022-08-07T08:02:03.776Z,18.60
2022-08-07T08:04:39.169Z,18.60
2022-08-07T08:07:08.912Z,18.70
2022-08-07T08:09:52.106Z,18.80
2022-08-07T08:12:52.450Z,18.80
2022-08-07T08:15:21.719Z,18.80
2022-08-07T08:17:58.798Z,18.90
2022-08-07T08:20:52.024Z,18.90
2022-08-07T08:23:47.011Z,19.00
2022-08-07T08:26:34.284Z,19.10
2022-08-07T08:29:10.084Z,19.30
2022-08-07T08:32:17.386Z,19.40
2022-08-07T08:34:48.980Z,19.50
2022-08-07T08:38:00.861Z,19.70
2022-08-07T08:40:33.052Z,19.80
2022-08-07T08:43:21.004Z,19.90
2022-08-07T08:46:22.987Z,19.90
2022-08-07T08:49:06.014Z,19.90
2022-08-07T08:52:13.433Z,20.00
2022-08-07T08:54:44.008Z,20.10
2022-08-07T08:57:40.526Z,20.10
2022-08-07T09:00:18.071Z,20.10
2022-08-07T09:03:08.314Z,20.20
2022-08-07T09:05:46.634Z,20.10
2022-08-07T09:08:39.271Z,20.10
2022-08-07T09:11:43.157Z,20.10
2022-08-07T09:14:30.978Z,20.10
2022-08-07T09:17:02.075Z,20.00
2022-08-07T09:20:34.885Z,19.90
2022-08-07T09:24:31.602Z,19.90
2022-08-07T09:26:27.989Z,19.90
2022-08-07T09:30:02.115Z,19.90
2022-08-07T09:32:17.134Z,19.90
2022-08-07T09:36:04.386Z,20.00
2022-08-07T09:39:00.166Z,20.10
2022-08-07T09:42:03.217Z,20.10
2022-08-07T09:46:28.595Z,20.10
2022-08-07T09:48:04.039Z,20.10
2022-08-07T09:52:09.361Z,20.20
2022-08-07T09:54:16.412Z,20.20
2022-08-07T09:57:12.955Z,20.20
2022-08-07T10:00:01.263Z,20.30
2022-08-07T10:03:07.839Z,20.40
2022-08-07T10:06:00.711Z,20.40
2022-08-07T10:09:05.086Z,20.60
2022-08-07T10:12:02.067Z,20.80
2022-08-07T10:15:15.410Z,21.00
2022-08-07T10:18:30.050Z,21.30
2022-08-07T10:22:12.515Z,21.70
2022-08-07T10:24:21.472Z,21.90
2022-08-07T10:27:23.149Z,22.10
2022-08-07T10:30:12.060Z,22.50
2022-08-07T10:33:08.404Z,22.50
2022-08-07T10:36:05.455Z,22.60
2022-08-07T10:39:05.410Z,22.70
2022-08-07T10:41:54.636Z,22.70
2022-08-07T10:44:50.247Z,22.80
2022-08-07T10:48:05.383Z,22.90
2022-08-07T10:50:51.044Z,22.90
2022-08-07T10:53:44.941Z,22.90
2022-08-07T10:56:32.913Z,22.80
2022-08-07T10:59:30.423Z,22.80
2022-08-07T11:02:33.429Z,22.80
2022-08-07T11:05:50.909Z,22.70
2022-08-07T11:09:11.320Z,22.60
2022-08-07T11:11:51.868Z,22.70
2022-08-07T11:14:44.240Z,22.80
2022-08-07T11:17:43.440Z,22.80
2022-08-07T11:20:29.056Z,23.00
2022-08-07T11:23:36.368Z,23.10
2022-08-07T11:26:38.603Z,23.40
2022-08-07T11:29:41.111Z,24.00
2022-08-07T11:32:37.085Z,24.40
2022-08-07T11:35:34.108Z,25.10
2022-08-07T11:38:17.572Z,25.80
2022-08-07T11:40:56.199Z,26.00
2022-08-07T11:43:54.417Z,25.90
2022-08-07T11:46:43.067Z,25.80
2022-08-07T11:49:27.667Z,26.00
2022-08-07T11:52:12.078Z,25.70
2022-08-07T11:54:54.810Z,25.50
2022-08-07T11:57:59.335Z,25.30
2022-08-07T12:00:55.094Z,24.90
2022-08-07T12:04:10.082Z,25.00
2022-08-07T12:07:00.359Z,25.80
2022-08-07T12:09:49.030Z,26.50
2022-08-07T12:12:25.735Z,26.90
2022-08-07T12:15:17.275Z,27.20
2022-08-07T12:18:11.237Z,27.40
2022-08-07T12:21:55.124Z,27.70
2022-08-07T12:24:41.109Z,28.10
2022-08-07T12:27:16.734Z,28.90
2022-08-07T12:30:00.011Z,28.90
2022-08-07T12:32:50.180Z,29.40
2022-08-07T12:35:26.023Z,28.60
2022-08-07T12:38:16.161Z,29.30
2022-08-07T12:40:57.445Z,29.50
2022-08-07T12:44:01.505Z,29.90
2022-08-07T12:47:08.025Z,30.40
2022-08-07T12:50:38.631Z,30.70
2022-08-07T12:53:24.018Z,30.60
2022-08-07T12:56:22.062Z,30.60
2022-08-07T12:58:53.169Z,30.70
2022-08-07T13:01:56.138Z,30.60
2022-08-07T13:04:34.532Z,30.90
2022-08-07T13:08:13.609Z,31.20
2022-08-07T13:10:51.427Z,31.60
2022-08-07T13:13:50.356Z,32.20
2022-08-07T13:16:43.108Z,32.50
2022-08-07T13:19:51.512Z,32.60
2022-08-07T13:22:37.272Z,32.70
2022-08-07T13:25:30.098Z,32.80
2022-08-07T13:28:14.288Z,32.40
2022-08-07T13:31:01.406Z,32.30
2022-08-07T13:34:33.179Z,32.20
2022-08-07T13:36:59.350Z,32.30
2022-08-07T13:40:34.208Z,32.40
2022-08-07T13:42:35.199Z,32.30
2022-08-07T13:46:06.943Z,32.00
2022-08-07T13:48:07.668Z,32.20
2022-08-07T13:50:44.528Z,32.30
2022-08-07T13:53:55.167Z,32.60
2022-08-07T13:56:35.602Z,32.90
2022-08-07T13:59:28.057Z,33.20
2022-08-07T14:02:07.659Z,32.80
2022-08-07T14:05:07.146Z,32.60
2022-08-07T14:08:00.916Z,32.60
2022-08-07T14:10:44.075Z,32.90
2022-08-07T14:13:33.530Z,33.40
2022-08-07T14:16:15.285Z,33.80
2022-08-07T14:18:57.037Z,34.00
2022-08-07T14:22:04.266Z,32.90
2022-08-07T14:24:36.045Z,32.90
2022-08-07T14:28:11.543Z,33.00
2022-08-07T14:30:12.383Z,33.60
2022-08-07T14:33:02.091Z,34.10
2022-08-07T14:35:47.666Z,34.10
2022-08-07T14:38:31.451Z,34.20
2022-08-07T14:41:12.139Z,34.30
2022-08-07T14:43:57.949Z,34.60
2022-08-07T14:46:51.799Z,34.80
2022-08-07T14:49:57.235Z,34.70
2022-08-07T14:52:28.881Z,34.80
2022-08-07T14:55:04.121Z,35.00
2022-08-07T14:57:58.127Z,35.00
2022-08-07T15:00:34.112Z,35.10
2022-08-07T15:03:16.681Z,35.30
2022-08-07T15:11:53.271Z,34.90
2022-08-07T15:14:25.424Z,35.00
2022-08-07T15:17:07.051Z,34.70
2022-08-07T15:22:54.154Z,35.00
2022-08-07T15:25:36.735Z,35.20
2022-08-07T15:28:32.110Z,35.60
2022-08-07T15:31:05.433Z,35.60
2022-08-07T15:33:42.703Z,35.50
2022-08-07T15:37:02.463Z,35.10
2022-08-07T15:39:13.187Z,35.10
2022-08-07T15:44:58.053Z,34.60
2022-08-07T15:47:59.978Z,34.70
2022-08-07T15:50:37.613Z,34.70
2022-08-07T15:53:16.176Z,34.50
2022-08-07T15:56:06.258Z,34.60
2022-08-07T15:58:52.497Z,34.60
2022-08-07T16:01:38.854Z,34.70
2022-08-07T16:04:19.121Z,34.70
2022-08-07T16:06:52.563Z,34.60
2022-08-07T16:09:51.116Z,34.30
2022-08-07T16:12:42.038Z,34.10
2022-08-07T16:16:48.493Z,33.70
2022-08-07T16:19:42.541Z,33.50
2022-08-07T16:22:55.174Z,33.10
2022-08-07T16:26:15.137Z,33.30
2022-08-07T16:30:09.326Z,33.10
2022-08-07T16:32:35.381Z,32.80
2022-08-07T16:35:52.394Z,32.70
2022-08-07T16:39:05.116Z,32.40
2022-08-07T16:42:13.127Z,32.40
2022-08-07T16:46:21.132Z,32.50
2022-08-07T16:48:15.217Z,32.40
2022-08-07T16:52:02.029Z,32.40
2022-08-07T16:54:40.080Z,32.40
2022-08-07T16:58:01.912Z,32.40
2022-08-07T17:01:01.102Z,32.30
2022-08-07T17:03:59.999Z,32.20
2022-08-07T17:07:03.024Z,32.20
2022-08-07T17:10:06.384Z,32.10
2022-08-07T17:13:15.150Z,32.00
2022-08-07T17:15:51.608Z,32.00
2022-08-07T17:18:51.142Z,31.70
2022-08-07T17:21:24.405Z,31.40
2022-08-07T17:24:12.645Z,30.70
2022-08-07T17:27:09.163Z,30.30
2022-08-07T17:30:14.246Z,30.10
2022-08-07T17:34:10.082Z,30.00
2022-08-07T17:36:29.103Z,29.90
2022-08-07T17:39:57.728Z,29.70
2022-08-07T17:42:59.194Z,29.30
2022-08-07T17:45:37.160Z,28.80
2022-08-07T17:48:31.136Z,28.60
2022-08-07T17:51:23.249Z,28.50
2022-08-07T17:54:06.118Z,28.50
2022-08-07T17:56:49.870Z,28.30
2022-08-07T17:59:35.769Z,28.30
2022-08-07T18:02:29.388Z,28.20
2022-08-07T18:05:21.020Z,28.10
2022-08-07T18:08:24.290Z,28.00
2022-08-07T18:11:53.660Z,27.70
2022-08-07T18:14:11.126Z,27.40
2022-08-07T18:17:02.346Z,27.30
2022-08-07T18:21:06.658Z,27.10
2022-08-07T18:22:50.161Z,27.00
2022-08-07T18:25:40.289Z,26.80
2022-08-07T18:28:35.268Z,26.50
2022-08-07T18:31:24.154Z,26.40
2022-08-07T18:34:37.436Z,26.10
2022-08-07T18:38:56.910Z,25.90
2022-08-07T18:40:59.807Z,25.60
2022-08-07T18:43:58.126Z,25.40
2022-08-07T18:46:58.286Z,25.30
2022-08-07T18:50:38.633Z,25.10
2022-08-07T18:53:01.457Z,25.00
2022-08-07T18:55:57.835Z,24.90
2022-08-07T18:59:00.092Z,24.70
2022-08-07T19:02:18.550Z,24.50
2022-08-07T19:05:14.966Z,24.30
2022-08-07T19:07:58.686Z,24.10
2022-08-07T19:10:51.708Z,23.90
2022-08-07T19:13:43.854Z,23.70
2022-08-07T19:17:04.781Z,23.50
2022-08-07T19:20:02.566Z,23.30
2022-08-07T19:22:47.153Z,23.10
2022-08-07T19:26:22.009Z,23.00
2022-08-07T19:28:58.071Z,22.80
2022-08-07T19:31:37.404Z,22.70
2022-08-07T19:34:11.632Z,22.60
2022-08-07T19:36:56.153Z,22.50
2022-08-07T19:39:40.564Z,22.40
2022-08-07T19:42:33.628Z,22.20
2022-08-07T19:45:12.635Z,22.10
2022-08-07T19:48:19.070Z,22.00
2022-08-07T19:50:58.143Z,21.90
2022-08-07T19:54:33.669Z,21.70
2022-08-07T19:57:52.417Z,21.60
2022-08-07T19:59:22.487Z,21.50
2022-08-07T20:02:19.194Z,21.40
2022-08-07T20:04:49.251Z,21.30
2022-08-07T20:07:23.404Z,21.20
2022-08-07T20:10:36.711Z,21.10
2022-08-07T20:12:51.191Z,20.90
2022-08-07T20:15:22.367Z,20.90
2022-08-07T20:17:56.209Z,20.70
2022-08-07T20:20:37.093Z,20.60
2022-08-07T20:23:23.385Z,20.50
2022-08-07T20:26:09.862Z,20.50
2022-08-07T20:28:39.820Z,20.40
2022-08-07T20:31:21.236Z,20.30
2022-08-07T20:34:02.150Z,20.10
2022-08-07T20:36:58.130Z,20.00
2022-08-07T20:40:02.199Z,20.00
2022-08-07T20:42:27.142Z,19.90
2022-08-07T20:44:57.222Z,19.80
2022-08-07T20:47:56.895Z,19.70
2022-08-07T20:50:24.437Z,19.60
2022-08-07T20:52:58.164Z,19.50
2022-08-07T20:55:35.938Z,19.40
2022-08-07T20:58:26.569Z,19.30
2022-08-07T21:01:00.942Z,19.30
2022-08-07T21:03:34.498Z,19.30
2022-08-07T21:06:21.585Z,19.10
2022-08-07T21:09:14.338Z,19.00
2022-08-07T21:11:50.989Z,19.00
2022-08-07T21:14:34.274Z,18.90
2022-08-07T21:18:02.817Z,18.90
2022-08-07T21:20:05.778Z,18.80
2022-08-07T21:22:55.152Z,18.80
2022-08-07T21:26:01.351Z,18.70
2022-08-07T21:29:30.691Z,18.60
2022-08-07T21:32:47.763Z,18.60
2022-08-07T21:35:11.414Z,18.50
2022-08-07T21:37:58.756Z,18.40
2022-08-07T21:40:54.103Z,18.30
2022-08-07T21:43:47.576Z,18.20
2022-08-07T21:46:34.144Z,18.20
2022-08-07T21:49:18.185Z,18.10
2022-08-07T21:51:59.162Z,18.10
2022-08-07T21:54:34.715Z,18.00
2022-08-07T21:57:39.900Z,17.90
2022-08-07T22:00:22.169Z,17.80
2022-08-07T22:03:11.167Z,17.80
2022-08-07T22:05:58.074Z,17.70
2022-08-07T22:08:45.173Z,17.70
2022-08-07T22:11:18.288Z,17.60
2022-08-07T22:13:55.595Z,17.50
2022-08-07T22:16:47.576Z,17.50
2022-08-07T22:19:36.997Z,17.40
2022-08-07T22:22:28.795Z,17.30
2022-08-07T22:25:17.241Z,17.30
2022-08-07T22:28:20.129Z,17.30
2022-08-07T22:31:45.158Z,17.20
2022-08-07T22:34:35.584Z,17.10
2022-08-07T22:37:28.168Z,17.10
2022-08-07T22:40:44.145Z,17.00
2022-08-07T22:43:21.196Z,16.90
2022-08-07T22:47:03.880Z,16.90
2022-08-07T22:49:54.059Z,16.80
2022-08-07T22:52:43.581Z,16.70
2022-08-07T22:55:47.936Z,16.70
2022-08-07T22:58:43.111Z,16.60
2022-08-07T23:01:48.620Z,16.50
2022-08-07T23:04:31.154Z,16.50
2022-08-07T23:07:42.070Z,16.50
2022-08-07T23:10:50.105Z,16.40
2022-08-07T23:13:48.971Z,16.30
2022-08-07T23:16:54.678Z,16.30
2022-08-07T23:19:52.484Z,16.20
2022-08-07T23:23:03.120Z,16.20
2022-08-07T23:25:52.990Z,16.10
2022-08-07T23:29:17.070Z,16.00
2022-08-07T23:34:20.271Z,16.00
2022-08-07T23:35:55.094Z,15.90
2022-08-07T23:38:54.715Z,15.80
2022-08-07T23:41:47.603Z,15.80
2022-08-07T23:45:15.028Z,15.80
2022-08-07T23:48:04.117Z,15.70
2022-08-07T23:50:40.788Z,15.70
2022-08-07T23:53:49.833Z,15.60
2022-08-07T23:56:37.827Z,15.60
